CCA225 ESGG-EDDF
Flight info
| Callsign | CCA225 |
|---|---|
| Flight time | N/A |
| Altitude | 35000 |
| Route | TOPLA3J TOPLA L996 ERNOV/N0483F380 DCT NIKDA DCT NOBRI DCT BUMIL DCT HLZ DCT RIMET/N0480F310 T157 KOKEB/N0435F230 T157 KERAX KERAX5A |
| Aircraft | B77W/H-SDE1E2E3FGHIJ2J3J4J5M1RWXY/LB1D1 |
Departure
| Time | N/A |
|---|---|
| Airport | Göteborg Landvetter Airport (ESGG) |
Arrival
| Time | 2026-05-07 06:53 |
|---|---|
| Airport | Frankfurt Main Airport (EDDF) |
| Time | Latitude | Longitude | Altitude | Speed | Heading |
|---|---|---|---|---|---|
| 2026-05-07 05:59 | 55.49466 | 12.44648 | 35037 ft | 492 kts | 188° |
| 2026-05-07 06:00 | 55.42691 | 12.43392 | 35036 ft | 492 kts | 188° |
| 2026-05-07 06:00 | 55.35882 | 12.42134 | 35036 ft | 492 kts | 188° |
| 2026-05-07 06:01 | 55.29099 | 12.40885 | 35031 ft | 493 kts | 188° |
| 2026-05-07 06:01 | 55.22321 | 12.39641 | 35035 ft | 493 kts | 188° |
| 2026-05-07 06:02 | 55.15489 | 12.38392 | 35030 ft | 494 kts | 187° |
| 2026-05-07 06:02 | 55.08692 | 12.37153 | 35032 ft | 493 kts | 188° |
| 2026-05-07 06:03 | 55.01902 | 12.35920 | 35029 ft | 492 kts | 187° |
| 2026-05-07 06:03 | 54.95084 | 12.34686 | 35035 ft | 492 kts | 187° |
| 2026-05-07 06:04 | 54.88282 | 12.33460 | 35041 ft | 491 kts | 187° |
| 2026-05-07 06:04 | 54.81511 | 12.32243 | 35038 ft | 491 kts | 187° |
| 2026-05-07 06:05 | 54.74771 | 12.31035 | 35041 ft | 491 kts | 187° |
| 2026-05-07 06:05 | 54.67959 | 12.29819 | 35039 ft | 490 kts | 187° |
| 2026-05-07 06:06 | 54.61257 | 12.28496 | 35032 ft | 488 kts | 192° |
| 2026-05-07 06:06 | 54.54760 | 12.25366 | 35032 ft | 486 kts | 198° |
| 2026-05-07 06:07 | 54.48338 | 12.21967 | 35023 ft | 486 kts | 198° |
| 2026-05-07 06:07 | 54.41896 | 12.18574 | 35012 ft | 487 kts | 198° |
| 2026-05-07 06:08 | 54.35403 | 12.15171 | 35007 ft | 487 kts | 198° |
| 2026-05-07 06:08 | 54.28949 | 12.11801 | 35010 ft | 487 kts | 198° |
| 2026-05-07 06:09 | 54.22493 | 12.08443 | 35012 ft | 487 kts | 198° |
| 2026-05-07 06:09 | 54.16048 | 12.05101 | 35001 ft | 487 kts | 198° |
| 2026-05-07 06:10 | 54.09590 | 12.01765 | 35006 ft | 487 kts | 198° |
| 2026-05-07 06:10 | 54.03107 | 11.98426 | 35007 ft | 487 kts | 198° |
| 2026-05-07 06:11 | 53.96616 | 11.95095 | 35010 ft | 487 kts | 198° |
| 2026-05-07 06:11 | 53.90145 | 11.91784 | 35009 ft | 488 kts | 198° |
| 2026-05-07 06:12 | 53.83711 | 11.88503 | 35008 ft | 488 kts | 198° |
| 2026-05-07 06:12 | 53.77211 | 11.85199 | 35009 ft | 488 kts | 198° |
| 2026-05-07 06:13 | 53.70736 | 11.81918 | 34998 ft | 488 kts | 198° |
| 2026-05-07 06:13 | 53.64260 | 11.78648 | 34999 ft | 488 kts | 198° |
| 2026-05-07 06:14 | 53.57771 | 11.75381 | 34996 ft | 488 kts | 198° |
| 2026-05-07 06:14 | 53.51279 | 11.72123 | 34991 ft | 488 kts | 198° |
| 2026-05-07 06:15 | 53.44786 | 11.68876 | 34981 ft | 489 kts | 198° |
| 2026-05-07 06:15 | 53.38312 | 11.65648 | 34986 ft | 488 kts | 198° |
| 2026-05-07 06:16 | 53.31792 | 11.62393 | 34978 ft | 488 kts | 199° |
| 2026-05-07 06:16 | 53.25800 | 11.57370 | 34975 ft | 486 kts | 216° |
| 2026-05-07 06:17 | 53.20958 | 11.49534 | 34971 ft | 487 kts | 232° |
| 2026-05-07 06:17 | 53.17011 | 11.40371 | 34974 ft | 489 kts | 234° |
| 2026-05-07 06:18 | 53.12686 | 11.31677 | 34974 ft | 489 kts | 221° |
| 2026-05-07 06:18 | 53.07040 | 11.25457 | 34979 ft | 490 kts | 204° |
| 2026-05-07 06:19 | 53.00810 | 11.21232 | 34986 ft | 490 kts | 202° |
| 2026-05-07 06:19 | 52.94487 | 11.17082 | 34980 ft | 491 kts | 202° |
| 2026-05-07 06:20 | 52.88176 | 11.12954 | 34980 ft | 491 kts | 202° |
| 2026-05-07 06:20 | 52.81861 | 11.08836 | 34981 ft | 490 kts | 202° |
| 2026-05-07 06:21 | 52.75503 | 11.04702 | 34981 ft | 490 kts | 201° |
| 2026-05-07 06:21 | 52.69178 | 11.00602 | 34972 ft | 491 kts | 201° |
| 2026-05-07 06:22 | 52.62799 | 10.96481 | 34968 ft | 493 kts | 201° |
| 2026-05-07 06:22 | 52.53247 | 10.90334 | 34970 ft | 493 kts | 201° |
| 2026-05-07 06:23 | 52.46892 | 10.86260 | 34961 ft | 493 kts | 201° |
| 2026-05-07 06:23 | 52.40527 | 10.82192 | 34960 ft | 493 kts | 201° |
| 2026-05-07 06:24 | 52.34187 | 10.78205 | 34953 ft | 494 kts | 200° |
| 2026-05-07 06:24 | 52.27689 | 10.74515 | 34948 ft | 494 kts | 199° |
| 2026-05-07 06:25 | 52.21220 | 10.70857 | 34946 ft | 495 kts | 199° |
| 2026-05-07 06:25 | 52.14712 | 10.67176 | 34942 ft | 496 kts | 199° |
| 2026-05-07 06:26 | 52.08251 | 10.63525 | 34938 ft | 496 kts | 199° |
| 2026-05-07 06:26 | 52.01740 | 10.59854 | 34942 ft | 495 kts | 200° |
| 2026-05-07 06:27 | 51.95226 | 10.56190 | 34937 ft | 495 kts | 199° |
| 2026-05-07 06:27 | 51.88754 | 10.52560 | 34917 ft | 495 kts | 199° |
| 2026-05-07 06:28 | 51.82256 | 10.48926 | 34903 ft | 496 kts | 199° |
| 2026-05-07 06:28 | 51.75720 | 10.45282 | 34894 ft | 497 kts | 199° |
| 2026-05-07 06:29 | 51.69241 | 10.41680 | 34896 ft | 497 kts | 199° |
| 2026-05-07 06:29 | 51.62710 | 10.38061 | 34906 ft | 498 kts | 199° |
| 2026-05-07 06:30 | 51.56173 | 10.34449 | 34905 ft | 497 kts | 199° |
| 2026-05-07 06:30 | 51.49632 | 10.30845 | 34918 ft | 497 kts | 199° |
| 2026-05-07 06:31 | 51.43145 | 10.27283 | 34918 ft | 497 kts | 199° |
| 2026-05-07 06:31 | 51.36613 | 10.23715 | 34904 ft | 498 kts | 197° |
| 2026-05-07 06:32 | 51.29794 | 10.21930 | 34904 ft | 499 kts | 182° |
| 2026-05-07 06:32 | 51.22847 | 10.21736 | 34908 ft | 500 kts | 181° |
| 2026-05-07 06:33 | 51.15939 | 10.21592 | 34890 ft | 500 kts | 181° |
| 2026-05-07 06:33 | 51.08995 | 10.21458 | 34896 ft | 500 kts | 181° |
| 2026-05-07 06:34 | 51.02074 | 10.21334 | 34895 ft | 499 kts | 181° |
| 2026-05-07 06:34 | 50.95140 | 10.21210 | 34901 ft | 497 kts | 181° |
| 2026-05-07 06:35 | 50.91734 | 10.21149 | 34666 ft | 484 kts | 181° |
| 2026-05-07 06:35 | 50.88409 | 10.21090 | 34083 ft | 480 kts | 181° |
| 2026-05-07 06:35 | 50.85123 | 10.20851 | 33514 ft | 478 kts | 186° |
| 2026-05-07 06:35 | 50.81874 | 10.19848 | 32919 ft | 476 kts | 195° |
| 2026-05-07 06:36 | 50.78813 | 10.18067 | 32319 ft | 475 kts | 206° |
| 2026-05-07 06:36 | 50.76097 | 10.15157 | 31707 ft | 475 kts | 222° |
| 2026-05-07 06:36 | 50.73992 | 10.11202 | 31013 ft | 475 kts | 237° |
| 2026-05-07 06:36 | 50.72350 | 10.06677 | 30191 ft | 475 kts | 242° |
| 2026-05-07 06:37 | 50.70921 | 10.02038 | 29246 ft | 467 kts | 248° |
| 2026-05-07 06:37 | 50.69774 | 9.97357 | 28446 ft | 454 kts | 249° |
| 2026-05-07 06:37 | 50.68690 | 9.92837 | 27661 ft | 442 kts | 249° |
| 2026-05-07 06:37 | 50.67425 | 9.88514 | 26855 ft | 432 kts | 240° |
| 2026-05-07 06:38 | 50.65765 | 9.84639 | 26050 ft | 422 kts | 231° |
| 2026-05-07 06:38 | 50.63847 | 9.81292 | 25263 ft | 413 kts | 226° |
| 2026-05-07 06:38 | 50.61869 | 9.78053 | 24460 ft | 404 kts | 226° |
| 2026-05-07 06:38 | 50.59951 | 9.74920 | 23510 ft | 401 kts | 226° |
| 2026-05-07 06:39 | 50.58033 | 9.71791 | 22465 ft | 400 kts | 226° |
| 2026-05-07 06:39 | 50.56123 | 9.68680 | 21422 ft | 398 kts | 226° |
| 2026-05-07 06:39 | 50.54217 | 9.65579 | 20386 ft | 396 kts | 226° |
| 2026-05-07 06:39 | 50.52304 | 9.62472 | 19337 ft | 394 kts | 227° |
| 2026-05-07 06:40 | 50.50422 | 9.59418 | 18325 ft | 391 kts | 226° |
| 2026-05-07 06:40 | 50.48549 | 9.56382 | 17336 ft | 387 kts | 227° |
| 2026-05-07 06:40 | 50.46697 | 9.53383 | 16344 ft | 384 kts | 227° |
| 2026-05-07 06:40 | 50.44846 | 9.50392 | 15341 ft | 380 kts | 227° |
| 2026-05-07 06:41 | 50.43039 | 9.47472 | 14353 ft | 376 kts | 227° |
| 2026-05-07 06:41 | 50.41214 | 9.44530 | 13346 ft | 372 kts | 227° |
| 2026-05-07 06:41 | 50.39449 | 9.41686 | 12358 ft | 368 kts | 227° |
| 2026-05-07 06:41 | 50.37680 | 9.38839 | 11352 ft | 363 kts | 228° |
| 2026-05-07 06:42 | 50.35946 | 9.36053 | 10402 ft | 357 kts | 228° |
| 2026-05-07 06:42 | 50.34251 | 9.33334 | 9941 ft | 337 kts | 227° |
| 2026-05-07 06:42 | 50.32666 | 9.30795 | 9542 ft | 320 kts | 227° |
| 2026-05-07 06:42 | 50.31154 | 9.28375 | 9069 ft | 308 kts | 227° |
| 2026-05-07 06:43 | 50.29678 | 9.26014 | 8578 ft | 299 kts | 228° |
| 2026-05-07 06:43 | 50.28233 | 9.23701 | 7976 ft | 295 kts | 228° |
| 2026-05-07 06:43 | 50.26803 | 9.21416 | 7346 ft | 292 kts | 228° |
| 2026-05-07 06:43 | 50.25405 | 9.19182 | 6722 ft | 290 kts | 228° |
| 2026-05-07 06:44 | 50.23994 | 9.16930 | 6104 ft | 288 kts | 228° |
| 2026-05-07 06:44 | 50.22617 | 9.14733 | 5467 ft | 286 kts | 227° |
| 2026-05-07 06:44 | 50.21232 | 9.12527 | 4827 ft | 284 kts | 228° |
| 2026-05-07 06:44 | 50.19853 | 9.10331 | 4196 ft | 282 kts | 227° |
| 2026-05-07 06:45 | 50.18512 | 9.08199 | 3964 ft | 264 kts | 228° |
| 2026-05-07 06:45 | 50.17277 | 9.06240 | 3947 ft | 244 kts | 227° |
| 2026-05-07 06:45 | 50.16126 | 9.04412 | 3986 ft | 227 kts | 229° |
| 2026-05-07 06:45 | 50.15111 | 9.02694 | 3961 ft | 206 kts | 240° |
| 2026-05-07 06:46 | 50.14474 | 9.00798 | 3995 ft | 188 kts | 251° |
| 2026-05-07 06:46 | 50.14018 | 8.98942 | 3985 ft | 179 kts | 252° |
| 2026-05-07 06:46 | 50.13607 | 8.97185 | 3962 ft | 173 kts | 253° |
| 2026-05-07 06:46 | 50.13201 | 8.95426 | 3975 ft | 171 kts | 253° |
| 2026-05-07 06:47 | 50.12804 | 8.93708 | 3964 ft | 167 kts | 253° |
| 2026-05-07 06:47 | 50.12400 | 8.91963 | 3971 ft | 169 kts | 253° |
| 2026-05-07 06:47 | 50.11998 | 8.90246 | 3968 ft | 169 kts | 253° |
| 2026-05-07 06:47 | 50.11599 | 8.88546 | 3979 ft | 168 kts | 253° |
| 2026-05-07 06:48 | 50.11195 | 8.86827 | 3977 ft | 168 kts | 253° |
| 2026-05-07 06:48 | 50.10794 | 8.85125 | 3951 ft | 170 kts | 253° |
| 2026-05-07 06:48 | 50.10389 | 8.83413 | 3727 ft | 168 kts | 253° |
| 2026-05-07 06:48 | 50.09986 | 8.81710 | 3510 ft | 166 kts | 254° |
| 2026-05-07 06:49 | 50.09588 | 8.80029 | 3297 ft | 164 kts | 254° |
| 2026-05-07 06:49 | 50.09198 | 8.78376 | 3080 ft | 162 kts | 253° |
| 2026-05-07 06:49 | 50.08810 | 8.76744 | 2871 ft | 161 kts | 253° |
| 2026-05-07 06:49 | 50.08421 | 8.75100 | 2651 ft | 160 kts | 253° |
| 2026-05-07 06:50 | 50.08041 | 8.73502 | 2433 ft | 159 kts | 253° |
| 2026-05-07 06:50 | 50.07659 | 8.71893 | 2231 ft | 159 kts | 253° |
| 2026-05-07 06:50 | 50.07273 | 8.70268 | 2005 ft | 158 kts | 253° |
| 2026-05-07 06:50 | 50.06895 | 8.68682 | 1784 ft | 157 kts | 253° |
| 2026-05-07 06:51 | 50.06517 | 8.67092 | 1569 ft | 156 kts | 253° |
| 2026-05-07 06:51 | 50.06145 | 8.65532 | 1348 ft | 148 kts | 253° |
| 2026-05-07 06:51 | 50.05815 | 8.64147 | 1162 ft | 126 kts | 253° |
| 2026-05-07 06:51 | 50.05515 | 8.62886 | 999 ft | 124 kts | 253° |
| 2026-05-07 06:52 | 50.05193 | 8.61539 | 864 ft | 142 kts | 252° |
| 2026-05-07 06:52 | 50.04850 | 8.60105 | 645 ft | 136 kts | 253° |
| 2026-05-07 06:52 | 50.04535 | 8.58786 | 441 ft | 130 kts | 252° |
| 2026-05-07 06:52 | 50.04252 | 8.57564 | 366 ft | 104 kts | 252° |
| 2026-05-07 06:53 | 50.04041 | 8.56712 | 357 ft | 68 kts | 249° |
| 2026-05-07 06:53 | 50.04004 | 8.56269 | 355 ft | 2 kts | 281° |
| 2026-05-07 06:53 | 50.04004 | 8.56268 | 355 ft | 0 kts | 281° |
| 2026-05-07 06:53 | 50.04006 | 8.56251 | 355 ft | 0 kts | 281° |
| 2026-05-07 06:54 | 50.04010 | 8.56218 | 355 ft | 10 kts | 281° |
| 2026-05-07 06:54 | 50.04046 | 8.56116 | 356 ft | 11 kts | 345° |
| 2026-05-07 06:54 | 50.04100 | 8.56187 | 359 ft | 11 kts | 70° |
| 2026-05-07 06:54 | 50.04131 | 8.56314 | 360 ft | 13 kts | 66° |
| 2026-05-07 06:55 | 50.04172 | 8.56451 | 361 ft | 14 kts | 71° |
| 2026-05-07 06:55 | 50.04202 | 8.56613 | 363 ft | 16 kts | 72° |
| 2026-05-07 06:55 | 50.04246 | 8.56776 | 367 ft | 16 kts | 66° |
| 2026-05-07 06:55 | 50.04282 | 8.56940 | 370 ft | 16 kts | 64° |
| 2026-05-07 06:56 | 50.04327 | 8.57110 | 371 ft | 17 kts | 71° |
| 2026-05-07 06:56 | 50.04368 | 8.57299 | 372 ft | 19 kts | 73° |
| 2026-05-07 06:56 | 50.04422 | 8.57513 | 370 ft | 22 kts | 70° |
| 2026-05-07 06:56 | 50.04475 | 8.57749 | 372 ft | 23 kts | 68° |
| 2026-05-07 06:57 | 50.04532 | 8.57980 | 377 ft | 22 kts | 57° |
| 2026-05-07 06:57 | 50.04672 | 8.57981 | 377 ft | 22 kts | 340° |
| 2026-05-07 06:57 | 50.04795 | 8.58043 | 381 ft | 18 kts | 65° |
| 2026-05-07 06:57 | 50.04837 | 8.58194 | 384 ft | 15 kts | 68° |
| 2026-05-07 06:58 | 50.04859 | 8.58312 | 384 ft | 6 kts | 120° |
| 2026-05-07 06:58 | 50.04821 | 8.58344 | 384 ft | 5 kts | 185° |
| 2026-05-07 06:58 | 50.04791 | 8.58356 | 383 ft | 2 kts | 152° |
| 2026-05-07 06:58 | 50.04785 | 8.58360 | 382 ft | 0 kts | 159° |